createdAt,value
2022-11-06T00:00:47.269Z,12.13
2022-11-06T00:03:15.803Z,15.37
2022-11-06T00:06:01.874Z,14.00
2022-11-06T00:08:34.302Z,13.60
2022-11-06T00:11:03.503Z,13.00
2022-11-06T00:13:32.290Z,13.83
2022-11-06T00:16:04.388Z,14.47
2022-11-06T00:18:33.085Z,13.87
2022-11-06T00:21:07.833Z,12.33
2022-11-06T00:23:37.823Z,18.60
2022-11-06T00:26:07.733Z,13.97
2022-11-06T00:28:36.347Z,11.90
2022-11-06T00:31:05.392Z,13.37
2022-11-06T00:33:34.064Z,12.33
2022-11-06T00:36:03.503Z,13.93
2022-11-06T00:38:32.034Z,15.07
2022-11-06T00:41:05.240Z,15.33
2022-11-06T00:43:34.194Z,11.63
2022-11-06T00:46:03.380Z,15.53
2022-11-06T00:48:31.981Z,17.67
2022-11-06T00:51:03.546Z,16.17
2022-11-06T00:53:32.025Z,16.50
2022-11-06T00:56:06.790Z,13.30
2022-11-06T00:58:35.430Z,13.63
2022-11-06T01:01:08.725Z,13.00
2022-11-06T01:03:37.446Z,12.40
2022-11-06T01:06:08.234Z,13.13
2022-11-06T01:08:37.061Z,13.13
2022-11-06T01:11:12.353Z,15.10
2022-11-06T01:13:40.915Z,12.60
2022-11-06T01:16:11.299Z,12.87
2022-11-06T01:18:41.755Z,11.87
2022-11-06T01:21:13.126Z,13.50
2022-11-06T01:23:42.002Z,12.50
2022-11-06T01:26:13.135Z,12.53
2022-11-06T01:28:42.179Z,13.47
2022-11-06T01:31:13.078Z,13.93
2022-11-06T01:33:41.620Z,13.33
2022-11-06T01:36:10.935Z,14.00
2022-11-06T01:38:41.911Z,14.43
2022-11-06T01:41:13.497Z,15.50
2022-11-06T01:43:47.228Z,15.13
2022-11-06T01:46:16.029Z,11.67
2022-11-06T01:48:47.665Z,20.60
2022-11-06T01:51:16.425Z,37.73
2022-11-06T01:53:46.233Z,68.47
2022-11-06T01:56:18.134Z,65.33
2022-11-06T01:58:51.424Z,97.00
2022-11-06T02:01:20.551Z,95.80
2022-11-06T02:03:52.991Z,130.17
2022-11-06T02:06:21.588Z,82.03
2022-11-06T02:08:50.043Z,124.50
2022-11-06T02:11:19.867Z,96.07
2022-11-06T02:13:59.333Z,85.27
2022-11-06T02:16:39.834Z,135.43
2022-11-06T02:19:23.775Z,105.20
2022-11-06T02:22:17.012Z,145.20
2022-11-06T02:25:08.249Z,168.37
2022-11-06T02:27:38.861Z,129.10
2022-11-06T02:30:09.205Z,227.57
2022-11-06T02:32:40.827Z,155.40
2022-11-06T02:35:17.443Z,209.10
2022-11-06T02:37:47.406Z,201.93
2022-11-06T02:40:16.610Z,228.10
2022-11-06T02:42:48.869Z,223.80
2022-11-06T02:45:18.823Z,275.90
2022-11-06T02:47:48.973Z,320.80
2022-11-06T02:50:21.195Z,195.07
2022-11-06T02:52:53.330Z,232.43
2022-11-06T02:55:26.707Z,203.83
2022-11-06T02:57:59.937Z,296.63
2022-11-06T03:00:28.820Z,122.97
2022-11-06T03:03:00.316Z,168.27
2022-11-06T03:05:31.949Z,227.73
2022-11-06T03:08:05.277Z,227.60
2022-11-06T03:10:37.058Z,161.77
2022-11-06T03:13:14.845Z,146.83
2022-11-06T03:15:46.748Z,162.57
2022-11-06T03:18:18.420Z,235.37
2022-11-06T03:20:56.999Z,161.57
2022-11-06T03:23:29.869Z,192.03
2022-11-06T03:26:02.265Z,206.13
2022-11-06T03:28:34.881Z,99.87
2022-11-06T03:31:04.657Z,161.07
2022-11-06T03:33:37.234Z,67.00
2022-11-06T03:36:10.156Z,166.10
2022-11-06T03:38:42.468Z,107.77
2022-11-06T03:41:15.303Z,243.40
2022-11-06T03:43:46.734Z,157.83
2022-11-06T03:46:19.431Z,185.83
2022-11-06T03:48:49.507Z,231.47
2022-11-06T03:51:20.674Z,229.03
2022-11-06T03:53:51.111Z,196.90
2022-11-06T03:56:25.057Z,196.97
2022-11-06T03:58:55.560Z,104.93
2022-11-06T04:01:29.384Z,142.07
2022-11-06T04:04:01.901Z,147.70
2022-11-06T04:06:35.162Z,180.47
2022-11-06T04:09:23.673Z,286.73
2022-11-06T04:12:10.549Z,228.67
2022-11-06T04:14:46.666Z,175.90
2022-11-06T04:17:16.444Z,265.73
2022-11-06T04:19:53.178Z,219.40
2022-11-06T04:22:30.875Z,221.20
2022-11-06T04:25:24.681Z,100.33
2022-11-06T04:28:04.743Z,210.10
2022-11-06T04:30:38.533Z,197.03
2022-11-06T04:33:09.972Z,163.97
2022-11-06T04:35:49.426Z,168.33
2022-11-06T04:38:27.259Z,212.60
2022-11-06T04:41:02.578Z,191.37
2022-11-06T04:43:37.533Z,173.80
2022-11-06T04:46:09.440Z,219.20
2022-11-06T04:48:38.693Z,207.13
2022-11-06T04:51:09.539Z,186.83
2022-11-06T04:53:38.850Z,220.07
2022-11-06T04:56:11.416Z,297.73
2022-11-06T04:58:40.434Z,219.13
2022-11-06T05:01:11.153Z,259.57
2022-11-06T05:03:39.579Z,253.00
2022-11-06T05:06:08.195Z,236.37
2022-11-06T05:08:36.531Z,171.07
2022-11-06T05:11:05.054Z,269.63
2022-11-06T05:13:35.173Z,80.70
2022-11-06T05:16:04.035Z,177.40
2022-11-06T05:18:33.973Z,151.17
2022-11-06T05:21:20.238Z,157.83
2022-11-06T05:23:48.758Z,112.07
2022-11-06T05:26:18.083Z,128.10
2022-11-06T05:28:46.582Z,157.00
2022-11-06T05:31:15.095Z,193.03
2022-11-06T05:33:44.932Z,145.40
2022-11-06T05:36:13.407Z,202.97
2022-11-06T05:38:41.788Z,198.23
2022-11-06T05:41:10.307Z,153.60
2022-11-06T05:43:38.650Z,171.33
2022-11-06T05:46:23.857Z,198.73
2022-11-06T05:48:57.095Z,134.03
2022-11-06T05:51:25.485Z,158.70
2022-11-06T05:53:53.860Z,168.20
2022-11-06T05:56:22.265Z,146.03
2022-11-06T05:58:50.722Z,165.63
2022-11-06T06:01:19.382Z,171.37
2022-11-06T06:03:47.924Z,91.50
2022-11-06T06:06:20.836Z,160.27
2022-11-06T06:08:49.624Z,126.97
2022-11-06T06:11:18.495Z,88.47
2022-11-06T06:13:48.319Z,71.67
2022-11-06T06:16:22.320Z,73.67
2022-11-06T06:18:55.448Z,62.80
2022-11-06T06:21:27.199Z,87.23
2022-11-06T06:23:55.610Z,98.87
2022-11-06T06:26:24.043Z,104.40
2022-11-06T06:28:52.577Z,71.97
2022-11-06T06:31:21.293Z,66.67
2022-11-06T06:33:49.701Z,90.50
2022-11-06T06:36:18.218Z,79.93
2022-11-06T06:38:48.111Z,87.67
2022-11-06T06:41:19.756Z,80.53
2022-11-06T06:43:49.288Z,57.30
2022-11-06T06:46:17.919Z,79.43
2022-11-06T06:48:46.499Z,65.27
2022-11-06T06:51:17.446Z,67.17
2022-11-06T06:53:51.157Z,76.93
2022-11-06T06:56:19.620Z,71.33
2022-11-06T06:58:48.309Z,66.57
2022-11-06T07:01:16.837Z,87.70
2022-11-06T07:03:45.402Z,77.10
2022-11-06T07:06:13.956Z,96.03
2022-11-06T07:08:42.455Z,115.30
2022-11-06T07:11:12.949Z,102.23
2022-11-06T07:13:41.542Z,115.63
2022-11-06T07:16:11.620Z,66.40
2022-11-06T07:18:41.558Z,182.57
2022-11-06T07:21:11.958Z,52.63
2022-11-06T07:23:40.754Z,74.43
2022-11-06T07:26:09.279Z,64.90
2022-11-06T07:28:39.137Z,38.90
2022-11-06T07:31:08.602Z,62.73
2022-11-06T07:33:37.482Z,93.83
2022-11-06T07:36:11.191Z,68.37
2022-11-06T07:38:41.096Z,90.43
2022-11-06T07:41:11.775Z,52.47
2022-11-06T07:43:42.269Z,33.97
2022-11-06T07:46:12.524Z,41.40
2022-11-06T07:48:41.132Z,25.00
2022-11-06T07:51:11.354Z,28.07
2022-11-06T07:53:40.247Z,35.77
2022-11-06T07:56:09.772Z,53.53
2022-11-06T07:58:39.948Z,24.53
2022-11-06T08:01:18.148Z,42.67
2022-11-06T08:03:47.337Z,32.93
2022-11-06T08:06:15.641Z,61.27
2022-11-06T08:08:44.045Z,39.33
2022-11-06T08:11:12.671Z,43.67
2022-11-06T08:13:41.292Z,35.80
2022-11-06T08:16:12.507Z,40.20
2022-11-06T08:18:41.756Z,39.53
2022-11-06T08:21:10.223Z,37.33
2022-11-06T08:23:38.801Z,25.07
2022-11-06T08:26:07.918Z,12.23
2022-11-06T08:28:36.730Z,21.30
2022-11-06T08:31:09.568Z,19.37
2022-11-06T08:33:40.121Z,19.20
2022-11-06T08:36:09.708Z,14.67
2022-11-06T08:38:38.071Z,12.23
2022-11-06T08:41:07.625Z,11.00
2022-11-06T08:43:36.588Z,13.27
2022-11-06T08:46:05.814Z,14.90
2022-11-06T08:48:34.520Z,14.67
2022-11-06T08:51:05.293Z,14.50
2022-11-06T08:53:33.987Z,14.03
2022-11-06T08:56:04.011Z,15.13
2022-11-06T08:58:32.520Z,13.37
2022-11-06T09:01:01.031Z,17.30
2022-11-06T09:03:29.463Z,14.00
2022-11-06T09:05:57.795Z,16.37
2022-11-06T09:08:32.747Z,17.87
2022-11-06T09:11:01.382Z,12.37
2022-11-06T09:13:29.748Z,18.53
2022-11-06T09:16:00.847Z,23.50
2022-11-06T09:18:29.587Z,14.57
2022-11-06T09:20:58.465Z,14.77
2022-11-06T09:23:28.198Z,16.63
2022-11-06T09:25:57.771Z,17.57
2022-11-06T09:28:26.538Z,15.40
2022-11-06T09:30:55.735Z,17.57
2022-11-06T09:33:24.389Z,24.57
2022-11-06T09:35:52.947Z,19.60
2022-11-06T09:38:21.462Z,16.23
2022-11-06T09:40:53.941Z,17.40
2022-11-06T09:44:03.028Z,14.27
2022-11-06T09:46:23.845Z,17.00
2022-11-06T09:48:57.175Z,17.63
2022-11-06T09:51:32.684Z,17.60
2022-11-06T09:54:05.051Z,18.27
2022-11-06T09:56:37.630Z,14.60
2022-11-06T09:59:07.755Z,20.30
2022-11-06T10:01:41.606Z,19.53
2022-11-06T10:04:20.619Z,17.03
2022-11-06T10:06:49.099Z,18.00
2022-11-06T10:09:17.926Z,20.40
2022-11-06T10:11:53.492Z,20.57
2022-11-06T10:14:33.083Z,18.43
2022-11-06T10:17:07.908Z,20.03
2022-11-06T10:19:41.312Z,19.93
2022-11-06T10:22:16.400Z,17.43
2022-11-06T10:24:47.385Z,22.13
2022-11-06T10:27:19.634Z,17.63
2022-11-06T10:30:01.325Z,22.20
2022-11-06T10:32:41.718Z,21.67
2022-11-06T10:35:16.436Z,15.73
2022-11-06T10:37:49.192Z,19.43
2022-11-06T10:40:20.023Z,17.37
2022-11-06T10:42:58.282Z,16.83
2022-11-06T10:45:28.667Z,18.80
2022-11-06T10:48:03.413Z,16.37
2022-11-06T10:50:37.139Z,13.77
2022-11-06T10:53:08.644Z,18.03
2022-11-06T10:55:59.973Z,15.93
2022-11-06T10:58:32.024Z,15.67
2022-11-06T11:01:03.075Z,16.03
2022-11-06T11:03:33.182Z,15.23
2022-11-06T11:06:04.136Z,14.90
2022-11-06T11:08:34.274Z,13.73
2022-11-06T11:11:05.188Z,13.87
2022-11-06T11:13:35.575Z,14.73
2022-11-06T11:16:05.039Z,14.43
2022-11-06T11:18:34.242Z,13.73
2022-11-06T11:21:08.861Z,13.23
2022-11-06T11:23:37.891Z,14.17
2022-11-06T11:26:22.575Z,13.10
2022-11-06T11:28:54.332Z,10.13
2022-11-06T11:31:29.901Z,13.43
2022-11-06T11:33:59.740Z,13.63
2022-11-06T11:36:28.407Z,10.13
2022-11-06T11:38:56.950Z,11.80
2022-11-06T11:41:26.357Z,12.90
2022-11-06T11:44:05.947Z,11.23
2022-11-06T11:46:34.962Z,11.07
2022-11-06T11:49:05.464Z,14.37
2022-11-06T11:51:36.743Z,11.00
2022-11-06T11:54:08.313Z,11.70
2022-11-06T11:57:03.672Z,13.10
2022-11-06T11:59:38.372Z,12.17
2022-11-06T12:02:15.454Z,11.37
2022-11-06T12:04:46.343Z,12.50
2022-11-06T12:07:24.328Z,13.40
2022-11-06T12:09:52.787Z,14.07
2022-11-06T12:12:23.725Z,14.07
2022-11-06T12:15:18.848Z,10.93
2022-11-06T12:17:51.925Z,12.63
2022-11-06T12:20:22.708Z,15.77
2022-11-06T12:22:53.193Z,14.10
2022-11-06T12:25:24.950Z,13.23
2022-11-06T12:27:55.286Z,15.07
2022-11-06T12:30:25.198Z,11.63
2022-11-06T12:33:03.193Z,14.13
2022-11-06T12:35:33.509Z,13.10
2022-11-06T12:38:08.792Z,13.23
2022-11-06T12:40:40.181Z,14.03
2022-11-06T12:43:17.574Z,14.57
2022-11-06T12:46:00.196Z,14.63
2022-11-06T12:48:45.134Z,12.80
2022-11-06T12:51:18.228Z,13.37
2022-11-06T12:53:58.939Z,13.70
2022-11-06T12:56:33.012Z,13.57
2022-11-06T12:59:13.036Z,16.83
2022-11-06T13:01:52.964Z,14.97
2022-11-06T13:04:31.003Z,13.80
2022-11-06T13:07:31.642Z,13.70
2022-11-06T13:10:16.787Z,13.93
2022-11-06T13:12:52.741Z,14.73
2022-11-06T13:15:28.214Z,15.07
2022-11-06T13:18:01.258Z,15.67
2022-11-06T13:20:35.522Z,16.43
2022-11-06T13:23:09.776Z,14.53
2022-11-06T13:25:42.000Z,14.73
2022-11-06T13:28:23.934Z,14.07
2022-11-06T13:30:53.408Z,16.40
2022-11-06T13:33:25.739Z,14.53
2022-11-06T13:35:54.584Z,14.60
2022-11-06T13:38:26.937Z,21.50
2022-11-06T13:41:03.113Z,18.83
2022-11-06T13:43:38.818Z,15.27
2022-11-06T13:46:12.137Z,15.77
2022-11-06T13:48:49.569Z,14.33
2022-11-06T13:51:22.395Z,15.17
2022-11-06T13:53:59.444Z,13.33
2022-11-06T13:56:47.316Z,17.13
2022-11-06T13:59:34.643Z,15.77
2022-11-06T14:02:17.707Z,15.27
2022-11-06T14:04:59.339Z,14.47
2022-11-06T14:07:29.227Z,14.60
2022-11-06T14:09:57.696Z,21.37
2022-11-06T14:12:26.211Z,15.60
2022-11-06T14:15:15.515Z,15.00
2022-11-06T14:17:55.194Z,14.50
2022-11-06T14:20:33.543Z,12.90
2022-11-06T14:23:39.565Z,11.90
2022-11-06T14:26:10.297Z,13.87
2022-11-06T14:28:39.742Z,13.43
2022-11-06T14:31:14.691Z,14.90
2022-11-06T14:34:02.405Z,13.17
2022-11-06T14:36:36.820Z,15.37
2022-11-06T14:39:11.064Z,13.33
2022-11-06T14:41:58.223Z,14.03
2022-11-06T14:44:31.316Z,13.33
2022-11-06T14:47:02.204Z,13.77
2022-11-06T14:49:37.281Z,11.60
2022-11-06T14:52:09.181Z,12.07
2022-11-06T14:54:40.358Z,16.17
2022-11-06T14:57:10.103Z,14.13
2022-11-06T14:59:40.203Z,15.73
2022-11-06T15:02:17.084Z,20.63
2022-11-06T15:04:49.523Z,21.23
2022-11-06T15:08:03.245Z,14.43
2022-11-06T15:10:48.885Z,14.20
2022-11-06T15:13:29.993Z,14.50
2022-11-06T15:16:04.525Z,17.30
2022-11-06T15:18:36.391Z,14.73
2022-11-06T15:21:07.923Z,14.20
2022-11-06T15:23:42.523Z,15.20
2022-11-06T15:26:22.272Z,13.47
2022-11-06T15:29:05.896Z,15.77
2022-11-06T15:31:34.874Z,14.80
2022-11-06T15:34:05.790Z,15.13
2022-11-06T15:36:38.709Z,15.73
2022-11-06T15:39:24.270Z,14.73
2022-11-06T15:41:53.221Z,15.87
2022-11-06T15:44:24.502Z,17.77
2022-11-06T15:46:54.455Z,17.17
2022-11-06T15:49:23.840Z,15.73
2022-11-06T15:51:54.806Z,16.63
2022-11-06T15:54:36.412Z,14.70
2022-11-06T15:57:09.774Z,16.47
2022-11-06T15:59:38.410Z,16.70
2022-11-06T16:02:15.293Z,15.13
2022-11-06T16:04:44.641Z,15.67
2022-11-06T16:07:14.007Z,14.47
2022-11-06T16:09:44.863Z,16.50
2022-11-06T16:12:14.377Z,17.87
2022-11-06T16:14:44.478Z,15.43
2022-11-06T16:17:17.079Z,15.23
2022-11-06T16:19:47.289Z,16.30
2022-11-06T16:22:18.291Z,19.17
2022-11-06T16:24:50.366Z,18.37
2022-11-06T16:27:19.295Z,16.63
2022-11-06T16:29:49.515Z,17.93
2022-11-06T16:32:19.531Z,16.00
2022-11-06T16:34:49.251Z,18.10
2022-11-06T16:37:38.548Z,15.50
2022-11-06T16:40:51.172Z,17.17
2022-11-06T16:43:21.333Z,21.63
2022-11-06T16:45:55.677Z,19.17
2022-11-06T16:48:35.547Z,19.27
2022-11-06T16:51:12.750Z,21.47
2022-11-06T16:53:52.784Z,18.80
2022-11-06T16:56:29.400Z,20.10
2022-11-06T16:59:02.123Z,19.90
2022-11-06T17:01:38.471Z,20.93
2022-11-06T17:04:07.958Z,24.83
2022-11-06T17:06:38.334Z,24.57
2022-11-06T17:09:09.931Z,22.53
2022-11-06T17:11:40.304Z,22.20
2022-11-06T17:14:19.256Z,24.13
2022-11-06T17:16:49.872Z,22.80
2022-11-06T17:19:19.374Z,24.40
2022-11-06T17:21:48.575Z,24.13
2022-11-06T17:24:36.095Z,35.53
2022-11-06T17:27:07.725Z,35.00
2022-11-06T17:29:37.082Z,22.70
2022-11-06T17:32:06.375Z,29.07
2022-11-06T17:34:35.191Z,24.77
2022-11-06T17:37:03.917Z,21.73
2022-11-06T17:39:32.849Z,23.97
2022-11-06T17:42:01.575Z,25.13
2022-11-06T17:44:31.577Z,22.33
2022-11-06T17:47:00.451Z,23.63
2022-11-06T17:49:29.058Z,21.23
2022-11-06T17:52:00.962Z,18.93
2022-11-06T17:54:32.210Z,23.03
2022-11-06T17:57:02.978Z,19.53
2022-11-06T17:59:33.482Z,21.20
2022-11-06T18:02:02.742Z,20.23
2022-11-06T18:04:31.910Z,20.23
2022-11-06T18:07:01.350Z,21.63
2022-11-06T18:09:30.199Z,26.63
2022-11-06T18:11:59.234Z,21.30
2022-11-06T18:14:28.803Z,22.87
2022-11-06T18:16:58.922Z,22.47
2022-11-06T18:19:28.007Z,21.60
2022-11-06T18:21:56.668Z,21.30
2022-11-06T18:24:28.948Z,21.43
2022-11-06T18:26:57.606Z,20.93
2022-11-06T18:29:26.309Z,20.80
2022-11-06T18:31:54.930Z,22.30
2022-11-06T18:34:24.908Z,21.77
2022-11-06T18:36:53.562Z,19.63
2022-11-06T18:39:22.190Z,19.17
2022-11-06T18:41:51.110Z,20.70
2022-11-06T18:44:19.910Z,20.33
2022-11-06T18:46:48.585Z,19.53
2022-11-06T18:49:17.583Z,20.50
2022-11-06T18:51:47.587Z,33.37
2022-11-06T18:54:16.321Z,30.90
2022-11-06T18:56:45.189Z,32.13
2022-11-06T18:59:16.592Z,34.10
2022-11-06T19:01:45.363Z,32.03
2022-11-06T19:04:14.207Z,31.60
2022-11-06T19:06:43.078Z,37.03
2022-11-06T19:09:13.056Z,37.87
2022-11-06T19:11:41.714Z,40.77
2022-11-06T19:14:10.590Z,34.30
2022-11-06T19:16:39.337Z,24.10
2022-11-06T19:19:08.432Z,25.07
2022-11-06T19:21:37.065Z,27.23
2022-11-06T19:24:06.715Z,22.87
2022-11-06T19:26:36.962Z,25.33
2022-11-06T19:29:07.539Z,28.30
2022-11-06T19:31:37.368Z,29.80
2022-11-06T19:34:07.284Z,28.97
2022-11-06T19:36:36.285Z,29.57
2022-11-06T19:39:05.472Z,28.23
2022-11-06T19:41:35.827Z,25.73
2022-11-06T19:44:04.542Z,26.00
2022-11-06T19:46:36.163Z,23.23
2022-11-06T19:49:05.968Z,20.40
2022-11-06T19:51:34.887Z,33.20
2022-11-06T19:54:03.448Z,33.60
2022-11-06T19:56:32.063Z,32.50
2022-11-06T19:59:02.320Z,23.93
2022-11-06T20:01:33.787Z,27.30
2022-11-06T20:04:02.576Z,23.70
2022-11-06T20:06:31.393Z,22.40
2022-11-06T20:09:00.162Z,20.63
2022-11-06T20:11:28.942Z,30.40
2022-11-06T20:13:58.017Z,26.83
2022-11-06T20:16:28.602Z,22.97
2022-11-06T20:18:58.754Z,16.47
2022-11-06T20:21:29.128Z,17.57
2022-11-06T20:23:58.161Z,17.87
2022-11-06T20:26:27.031Z,17.27
2022-11-06T20:28:55.665Z,17.40
2022-11-06T20:31:24.450Z,17.80
2022-11-06T20:33:54.697Z,17.03
2022-11-06T20:36:25.378Z,16.63
2022-11-06T20:38:57.400Z,18.17
2022-11-06T20:41:28.331Z,15.90
2022-11-06T20:43:57.343Z,15.73
2022-11-06T20:46:26.234Z,25.10
2022-11-06T20:48:57.684Z,31.10
2022-11-06T20:51:29.329Z,26.13
2022-11-06T20:53:57.884Z,19.60
2022-11-06T20:56:26.397Z,19.33
2022-11-06T20:58:55.843Z,18.17
2022-11-06T21:01:25.904Z,17.70
2022-11-06T21:03:56.911Z,19.33
2022-11-06T21:06:26.511Z,17.07
2022-11-06T21:08:55.583Z,16.97
2022-11-06T21:11:25.848Z,19.63
2022-11-06T21:13:55.105Z,16.33
2022-11-06T21:16:25.493Z,17.10
2022-11-06T21:18:55.762Z,17.60
2022-11-06T21:21:26.528Z,20.07
2022-11-06T21:23:56.725Z,16.73
2022-11-06T21:26:26.254Z,15.87
2022-11-06T21:28:55.797Z,21.60
2022-11-06T21:31:27.595Z,23.70
2022-11-06T21:33:59.100Z,27.47
2022-11-06T21:36:28.933Z,19.53
2022-11-06T21:38:59.816Z,19.77
2022-11-06T21:41:29.528Z,17.67
2022-11-06T21:43:58.424Z,15.20
2022-11-06T21:46:27.083Z,16.60
2022-11-06T21:48:57.335Z,16.77
2022-11-06T21:51:27.852Z,17.20
2022-11-06T21:54:14.430Z,16.67
2022-11-06T21:56:43.633Z,15.73
2022-11-06T21:59:13.712Z,16.10
2022-11-06T22:01:43.036Z,14.13
2022-11-06T22:04:13.722Z,13.63
2022-11-06T22:06:43.481Z,13.43
2022-11-06T22:09:13.588Z,13.83
2022-11-06T22:11:43.310Z,13.77
2022-11-06T22:14:13.655Z,13.87
2022-11-06T22:16:43.911Z,12.63
2022-11-06T22:19:14.738Z,12.43
2022-11-06T22:21:43.416Z,14.20
2022-11-06T22:24:13.015Z,11.37
2022-11-06T22:26:41.847Z,12.60
2022-11-06T22:29:14.068Z,11.07
2022-11-06T22:31:43.042Z,12.17
2022-11-06T22:34:13.792Z,12.07
2022-11-06T22:36:42.787Z,10.57
2022-11-06T22:39:12.300Z,10.90
2022-11-06T22:41:41.393Z,12.50
2022-11-06T22:44:10.326Z,10.80
2022-11-06T22:46:39.144Z,11.53
2022-11-06T22:49:07.880Z,10.07
2022-11-06T22:51:37.896Z,10.87
2022-11-06T22:54:06.641Z,10.40
2022-11-06T22:56:35.142Z,9.83
2022-11-06T22:59:07.674Z,9.60
2022-11-06T23:01:41.555Z,9.97
2022-11-06T23:04:14.893Z,10.53
2022-11-06T23:06:46.187Z,10.07
2022-11-06T23:09:15.509Z,9.07
2022-11-06T23:11:46.286Z,9.10
2022-11-06T23:14:14.980Z,9.07
2022-11-06T23:17:00.718Z,9.60
2022-11-06T23:19:31.874Z,9.67
2022-11-06T23:22:15.911Z,8.67
2022-11-06T23:24:44.938Z,8.70
2022-11-06T23:27:13.872Z,9.87
2022-11-06T23:29:43.016Z,10.23
2022-11-06T23:32:11.895Z,8.93
2022-11-06T23:34:40.496Z,9.27
2022-11-06T23:37:10.652Z,9.00
2022-11-06T23:39:39.624Z,9.00
2022-11-06T23:42:08.274Z,8.97
2022-11-06T23:44:54.301Z,9.17
2022-11-06T23:47:22.833Z,8.80
2022-11-06T23:49:51.604Z,8.60
2022-11-06T23:52:21.987Z,8.77
2022-11-06T23:54:50.661Z,7.67
2022-11-06T23:57:19.375Z,8.33
2022-11-06T23:59:48.568Z,8.37
